sensor_id;sensor_type;location;lat;lon;timestamp;P1;durP1;ratioP1;P2;durP2;ratioP2
36423;SDS011;22458;45.328;9.514;2022-08-25T00:00:42;8.50;;;7.60;;
36423;SDS011;22458;45.328;9.514;2022-08-25T00:03:09;8.13;;;7.32;;
36423;SDS011;22458;45.328;9.514;2022-08-25T00:05:36;7.90;;;7.05;;
36423;SDS011;22458;45.328;9.514;2022-08-25T00:08:02;9.50;;;7.93;;
36423;SDS011;22458;45.328;9.514;2022-08-25T00:10:30;10.05;;;7.70;;
36423;SDS011;22458;45.328;9.514;2022-08-25T00:12:59;8.10;;;7.30;;
36423;SDS011;22458;45.328;9.514;2022-08-25T00:15:26;10.30;;;7.35;;
36423;SDS011;22458;45.328;9.514;2022-08-25T00:17:53;8.90;;;7.65;;
36423;SDS011;22458;45.328;9.514;2022-08-25T00:20:19;9.48;;;7.57;;
36423;SDS011;22458;45.328;9.514;2022-08-25T00:22:46;10.27;;;7.82;;
36423;SDS011;22458;45.328;9.514;2022-08-25T00:25:13;10.60;;;8.02;;
36423;SDS011;22458;45.328;9.514;2022-08-25T00:27:39;9.90;;;7.28;;
36423;SDS011;22458;45.328;9.514;2022-08-25T00:30:05;9.93;;;8.23;;
36423;SDS011;22458;45.328;9.514;2022-08-25T00:32:31;8.70;;;7.78;;
36423;SDS011;22458;45.328;9.514;2022-08-25T00:34:57;8.25;;;7.28;;
36423;SDS011;22458;45.328;9.514;2022-08-25T00:37:23;10.88;;;8.48;;
36423;SDS011;22458;45.328;9.514;2022-08-25T00:39:49;10.77;;;7.03;;
36423;SDS011;22458;45.328;9.514;2022-08-25T00:42:15;8.23;;;7.28;;
36423;SDS011;22458;45.328;9.514;2022-08-25T00:44:40;9.60;;;7.53;;
36423;SDS011;22458;45.328;9.514;2022-08-25T00:47:07;12.27;;;8.60;;
36423;SDS011;22458;45.328;9.514;2022-08-25T00:54:50;10.35;;;8.00;;
36423;SDS011;22458;45.328;9.514;2022-08-25T00:57:21;11.15;;;8.15;;
36423;SDS011;22458;45.328;9.514;2022-08-25T00:59:52;9.00;;;8.00;;
36423;SDS011;22458;45.328;9.514;2022-08-25T01:02:18;8.48;;;7.68;;
36423;SDS011;22458;45.328;9.514;2022-08-25T01:04:44;11.05;;;8.18;;
36423;SDS011;22458;45.328;9.514;2022-08-25T01:07:11;11.70;;;7.63;;
36423;SDS011;22458;45.328;9.514;2022-08-25T01:09:38;8.38;;;7.38;;
36423;SDS011;22458;45.328;9.514;2022-08-25T01:12:06;8.02;;;7.32;;
36423;SDS011;22458;45.328;9.514;2022-08-25T01:14:32;9.02;;;7.57;;
36423;SDS011;22458;45.328;9.514;2022-08-25T01:16:59;8.63;;;7.65;;
36423;SDS011;22458;45.328;9.514;2022-08-25T01:19:25;9.90;;;7.55;;
36423;SDS011;22458;45.328;9.514;2022-08-25T01:21:53;9.55;;;7.57;;
36423;SDS011;22458;45.328;9.514;2022-08-25T01:24:37;9.10;;;7.35;;
36423;SDS011;22458;45.328;9.514;2022-08-25T01:27:05;8.82;;;7.50;;
36423;SDS011;22458;45.328;9.514;2022-08-25T01:29:31;9.52;;;6.78;;
36423;SDS011;22458;45.328;9.514;2022-08-25T01:31:58;6.68;;;5.97;;
36423;SDS011;22458;45.328;9.514;2022-08-25T01:34:28;8.10;;;7.05;;
36423;SDS011;22458;45.328;9.514;2022-08-25T01:36:57;9.80;;;7.68;;
36423;SDS011;22458;45.328;9.514;2022-08-25T01:39:24;8.65;;;7.22;;
36423;SDS011;22458;45.328;9.514;2022-08-25T01:44:30;8.73;;;7.53;;
36423;SDS011;22458;45.328;9.514;2022-08-25T01:46:57;7.35;;;6.65;;
36423;SDS011;22458;45.328;9.514;2022-08-25T01:49:23;8.13;;;7.32;;
36423;SDS011;22458;45.328;9.514;2022-08-25T01:51:56;8.27;;;7.47;;
36423;SDS011;22458;45.328;9.514;2022-08-25T01:54:29;11.60;;;7.25;;
36423;SDS011;22458;45.328;9.514;2022-08-25T01:56:55;10.25;;;7.82;;
36423;SDS011;22458;45.328;9.514;2022-08-25T01:59:22;7.90;;;7.13;;
36423;SDS011;22458;45.328;9.514;2022-08-25T02:01:50;8.27;;;7.07;;
36423;SDS011;22458;45.328;9.514;2022-08-25T02:04:16;8.98;;;7.40;;
36423;SDS011;22458;45.328;9.514;2022-08-25T02:06:43;8.38;;;7.57;;
36423;SDS011;22458;45.328;9.514;2022-08-25T02:09:10;8.48;;;6.93;;
36423;SDS011;22458;45.328;9.514;2022-08-25T02:11:39;9.35;;;7.90;;
36423;SDS011;22458;45.328;9.514;2022-08-25T02:14:07;9.18;;;7.55;;
36423;SDS011;22458;45.328;9.514;2022-08-25T02:16:36;8.88;;;7.57;;
36423;SDS011;22458;45.328;9.514;2022-08-25T02:19:05;8.57;;;7.60;;
36423;SDS011;22458;45.328;9.514;2022-08-25T02:21:33;7.80;;;7.00;;
36423;SDS011;22458;45.328;9.514;2022-08-25T02:23:59;8.32;;;7.15;;
36423;SDS011;22458;45.328;9.514;2022-08-25T02:26:25;8.18;;;7.38;;
36423;SDS011;22458;45.328;9.514;2022-08-25T02:28:52;8.05;;;6.68;;
36423;SDS011;22458;45.328;9.514;2022-08-25T02:31:19;7.30;;;6.60;;
36423;SDS011;22458;45.328;9.514;2022-08-25T02:33:47;9.98;;;7.82;;
36423;SDS011;22458;45.328;9.514;2022-08-25T02:36:12;8.55;;;7.45;;
36423;SDS011;22458;45.328;9.514;2022-08-25T02:38:39;7.63;;;6.80;;
36423;SDS011;22458;45.328;9.514;2022-08-25T02:41:09;7.40;;;6.57;;
36423;SDS011;22458;45.328;9.514;2022-08-25T02:43:41;8.80;;;7.90;;
36423;SDS011;22458;45.328;9.514;2022-08-25T02:46:08;7.10;;;6.45;;
36423;SDS011;22458;45.328;9.514;2022-08-25T02:48:35;9.63;;;7.65;;
36423;SDS011;22458;45.328;9.514;2022-08-25T02:51:01;8.50;;;6.97;;
36423;SDS011;22458;45.328;9.514;2022-08-25T02:53:29;7.93;;;7.13;;
36423;SDS011;22458;45.328;9.514;2022-08-25T02:55:55;8.98;;;6.47;;
36423;SDS011;22458;45.328;9.514;2022-08-25T02:58:20;10.35;;;6.95;;
36423;SDS011;22458;45.328;9.514;2022-08-25T03:00:47;8.82;;;7.93;;
36423;SDS011;22458;45.328;9.514;2022-08-25T03:03:14;8.88;;;6.93;;
36423;SDS011;22458;45.328;9.514;2022-08-25T03:05:40;8.23;;;6.45;;
36423;SDS011;22458;45.328;9.514;2022-08-25T03:08:06;7.70;;;6.65;;
36423;SDS011;22458;45.328;9.514;2022-08-25T03:10:32;9.18;;;6.50;;
36423;SDS011;22458;45.328;9.514;2022-08-25T03:12:59;9.32;;;6.78;;
36423;SDS011;22458;45.328;9.514;2022-08-25T03:15:24;9.68;;;6.63;;
36423;SDS011;22458;45.328;9.514;2022-08-25T03:17:52;8.20;;;7.35;;
36423;SDS011;22458;45.328;9.514;2022-08-25T03:20:19;8.38;;;6.35;;
36423;SDS011;22458;45.328;9.514;2022-08-25T03:22:46;7.93;;;6.75;;
36423;SDS011;22458;45.328;9.514;2022-08-25T03:25:12;7.47;;;6.78;;
36423;SDS011;22458;45.328;9.514;2022-08-25T03:27:57;10.60;;;7.25;;
36423;SDS011;22458;45.328;9.514;2022-08-25T03:30:23;8.98;;;7.30;;
36423;SDS011;22458;45.328;9.514;2022-08-25T03:32:49;8.85;;;7.03;;
36423;SDS011;22458;45.328;9.514;2022-08-25T03:35:16;10.20;;;7.47;;
36423;SDS011;22458;45.328;9.514;2022-08-25T03:37:42;9.30;;;6.90;;
36423;SDS011;22458;45.328;9.514;2022-08-25T03:40:09;7.43;;;6.63;;
36423;SDS011;22458;45.328;9.514;2022-08-25T03:42:40;10.13;;;6.72;;
36423;SDS011;22458;45.328;9.514;2022-08-25T03:45:07;8.07;;;7.28;;
36423;SDS011;22458;45.328;9.514;2022-08-25T03:47:33;8.30;;;7.25;;
36423;SDS011;22458;45.328;9.514;2022-08-25T03:49:59;7.90;;;6.63;;
36423;SDS011;22458;45.328;9.514;2022-08-25T03:52:24;8.63;;;7.30;;
36423;SDS011;22458;45.328;9.514;2022-08-25T03:54:50;9.35;;;8.07;;
36423;SDS011;22458;45.328;9.514;2022-08-25T03:57:16;10.52;;;7.47;;
36423;SDS011;22458;45.328;9.514;2022-08-25T03:59:44;8.27;;;7.00;;
36423;SDS011;22458;45.328;9.514;2022-08-25T04:02:10;10.23;;;7.03;;
36423;SDS011;22458;45.328;9.514;2022-08-25T04:04:36;7.78;;;6.47;;
36423;SDS011;22458;45.328;9.514;2022-08-25T04:07:02;8.05;;;6.72;;
36423;SDS011;22458;45.328;9.514;2022-08-25T04:09:27;11.02;;;7.18;;
36423;SDS011;22458;45.328;9.514;2022-08-25T04:11:53;7.25;;;6.55;;
36423;SDS011;22458;45.328;9.514;2022-08-25T04:14:19;7.90;;;6.93;;
36423;SDS011;22458;45.328;9.514;2022-08-25T04:16:59;7.93;;;6.83;;
36423;SDS011;22458;45.328;9.514;2022-08-25T04:19:25;6.93;;;6.30;;
36423;SDS011;22458;45.328;9.514;2022-08-25T04:21:51;7.57;;;6.75;;
36423;SDS011;22458;45.328;9.514;2022-08-25T04:24:17;8.75;;;6.55;;
36423;SDS011;22458;45.328;9.514;2022-08-25T04:26:47;7.15;;;6.45;;
36423;SDS011;22458;45.328;9.514;2022-08-25T04:29:16;7.53;;;6.72;;
36423;SDS011;22458;45.328;9.514;2022-08-25T04:31:45;7.38;;;6.50;;
36423;SDS011;22458;45.328;9.514;2022-08-25T04:34:13;7.25;;;5.80;;
36423;SDS011;22458;45.328;9.514;2022-08-25T04:36:39;8.48;;;6.70;;
36423;SDS011;22458;45.328;9.514;2022-08-25T04:39:05;7.70;;;6.57;;
36423;SDS011;22458;45.328;9.514;2022-08-25T04:41:31;8.98;;;6.93;;
36423;SDS011;22458;45.328;9.514;2022-08-25T04:43:57;7.32;;;6.57;;
36423;SDS011;22458;45.328;9.514;2022-08-25T04:46:25;6.13;;;5.47;;
36423;SDS011;22458;45.328;9.514;2022-08-25T04:48:54;6.95;;;6.00;;
36423;SDS011;22458;45.328;9.514;2022-08-25T04:51:21;7.07;;;5.97;;
36423;SDS011;22458;45.328;9.514;2022-08-25T04:53:50;7.38;;;6.43;;
36423;SDS011;22458;45.328;9.514;2022-08-25T04:56:17;7.80;;;6.93;;
36423;SDS011;22458;45.328;9.514;2022-08-25T04:58:45;7.10;;;6.40;;
36423;SDS011;22458;45.328;9.514;2022-08-25T05:01:15;7.95;;;6.63;;
36423;SDS011;22458;45.328;9.514;2022-08-25T05:03:43;8.50;;;6.82;;
36423;SDS011;22458;45.328;9.514;2022-08-25T05:06:16;7.68;;;6.53;;
36423;SDS011;22458;45.328;9.514;2022-08-25T05:08:42;8.02;;;6.78;;
36423;SDS011;22458;45.328;9.514;2022-08-25T05:11:09;8.20;;;6.20;;
36423;SDS011;22458;45.328;9.514;2022-08-25T05:13:38;6.22;;;5.47;;
36423;SDS011;22458;45.328;9.514;2022-08-25T05:16:05;8.10;;;6.43;;
36423;SDS011;22458;45.328;9.514;2022-08-25T05:18:32;7.43;;;6.10;;
36423;SDS011;22458;45.328;9.514;2022-08-25T05:21:03;7.13;;;6.07;;
36423;SDS011;22458;45.328;9.514;2022-08-25T05:23:30;7.57;;;6.72;;
36423;SDS011;22458;45.328;9.514;2022-08-25T05:26:00;7.35;;;6.60;;
36423;SDS011;22458;45.328;9.514;2022-08-25T05:28:29;6.30;;;5.63;;
36423;SDS011;22458;45.328;9.514;2022-08-25T05:30:58;8.25;;;6.10;;
36423;SDS011;22458;45.328;9.514;2022-08-25T05:33:26;8.45;;;5.65;;
36423;SDS011;22458;45.328;9.514;2022-08-25T05:35:52;11.93;;;6.20;;
36423;SDS011;22458;45.328;9.514;2022-08-25T05:38:18;8.50;;;6.50;;
36423;SDS011;22458;45.328;9.514;2022-08-25T05:40:44;6.85;;;6.03;;
36423;SDS011;22458;45.328;9.514;2022-08-25T05:43:10;9.38;;;6.57;;
36423;SDS011;22458;45.328;9.514;2022-08-25T05:45:38;6.43;;;5.82;;
36423;SDS011;22458;45.328;9.514;2022-08-25T05:48:05;6.72;;;6.13;;
36423;SDS011;22458;45.328;9.514;2022-08-25T05:50:31;8.18;;;6.50;;
36423;SDS011;22458;45.328;9.514;2022-08-25T05:52:57;12.25;;;6.55;;
36423;SDS011;22458;45.328;9.514;2022-08-25T05:55:22;7.05;;;6.35;;
36423;SDS011;22458;45.328;9.514;2022-08-25T05:57:48;8.13;;;6.68;;
36423;SDS011;22458;45.328;9.514;2022-08-25T06:00:14;7.75;;;6.88;;
36423;SDS011;22458;45.328;9.514;2022-08-25T06:02:41;6.63;;;6.03;;
36423;SDS011;22458;45.328;9.514;2022-08-25T06:05:13;8.57;;;6.40;;
36423;SDS011;22458;45.328;9.514;2022-08-25T06:07:41;6.57;;;5.90;;
36423;SDS011;22458;45.328;9.514;2022-08-25T06:10:08;7.45;;;5.72;;
36423;SDS011;22458;45.328;9.514;2022-08-25T06:12:38;6.35;;;5.75;;
36423;SDS011;22458;45.328;9.514;2022-08-25T06:15:06;6.75;;;6.10;;
36423;SDS011;22458;45.328;9.514;2022-08-25T06:17:32;7.07;;;5.82;;
36423;SDS011;22458;45.328;9.514;2022-08-25T06:20:05;6.63;;;5.95;;
36423;SDS011;22458;45.328;9.514;2022-08-25T06:22:33;6.07;;;5.45;;
36423;SDS011;22458;45.328;9.514;2022-08-25T06:24:58;7.75;;;5.43;;
36423;SDS011;22458;45.328;9.514;2022-08-25T06:27:24;9.93;;;5.70;;
36423;SDS011;22458;45.328;9.514;2022-08-25T06:29:50;6.93;;;5.18;;
36423;SDS011;22458;45.328;9.514;2022-08-25T06:32:16;9.15;;;5.50;;
36423;SDS011;22458;45.328;9.514;2022-08-25T06:34:41;5.82;;;4.63;;
36423;SDS011;22458;45.328;9.514;2022-08-25T06:37:07;6.70;;;4.82;;
36423;SDS011;22458;45.328;9.514;2022-08-25T06:39:33;6.03;;;5.15;;
36423;SDS011;22458;45.328;9.514;2022-08-25T06:41:59;6.00;;;5.25;;
36423;SDS011;22458;45.328;9.514;2022-08-25T06:44:24;6.13;;;4.50;;
36423;SDS011;22458;45.328;9.514;2022-08-25T06:46:51;6.53;;;5.18;;
36423;SDS011;22458;45.328;9.514;2022-08-25T06:49:18;5.43;;;4.82;;
36423;SDS011;22458;45.328;9.514;2022-08-25T06:51:44;8.55;;;5.53;;
36423;SDS011;22458;45.328;9.514;2022-08-25T06:54:10;8.73;;;7.05;;
36423;SDS011;22458;45.328;9.514;2022-08-25T06:56:38;9.35;;;6.53;;
36423;SDS011;22458;45.328;9.514;2022-08-25T06:59:05;8.02;;;5.82;;
36423;SDS011;22458;45.328;9.514;2022-08-25T07:01:32;7.30;;;5.55;;
36423;SDS011;22458;45.328;9.514;2022-08-25T07:03:59;7.25;;;5.00;;
36423;SDS011;22458;45.328;9.514;2022-08-25T07:06:28;5.38;;;4.50;;
36423;SDS011;22458;45.328;9.514;2022-08-25T07:08:56;6.57;;;4.47;;
36423;SDS011;22458;45.328;9.514;2022-08-25T07:11:22;8.52;;;5.35;;
36423;SDS011;22458;45.328;9.514;2022-08-25T07:13:48;5.40;;;4.88;;
36423;SDS011;22458;45.328;9.514;2022-08-25T07:16:15;5.47;;;4.97;;
36423;SDS011;22458;45.328;9.514;2022-08-25T07:18:43;5.22;;;4.72;;
36423;SDS011;22458;45.328;9.514;2022-08-25T07:21:10;6.82;;;4.93;;
36423;SDS011;22458;45.328;9.514;2022-08-25T07:23:37;7.10;;;5.03;;
36423;SDS011;22458;45.328;9.514;2022-08-25T07:26:23;5.15;;;4.65;;
36423;SDS011;22458;45.328;9.514;2022-08-25T07:28:50;5.43;;;4.50;;
36423;SDS011;22458;45.328;9.514;2022-08-25T07:31:16;5.93;;;3.97;;
36423;SDS011;22458;45.328;9.514;2022-08-25T07:33:42;8.73;;;4.10;;
36423;SDS011;22458;45.328;9.514;2022-08-25T07:36:28;7.97;;;4.10;;
36423;SDS011;22458;45.328;9.514;2022-08-25T07:38:55;4.63;;;3.80;;
36423;SDS011;22458;45.328;9.514;2022-08-25T07:41:28;4.30;;;3.58;;
36423;SDS011;22458;45.328;9.514;2022-08-25T07:47:17;3.97;;;3.30;;
36423;SDS011;22458;45.328;9.514;2022-08-25T07:49:43;6.22;;;4.57;;
36423;SDS011;22458;45.328;9.514;2022-08-25T07:52:09;3.63;;;2.60;;
36423;SDS011;22458;45.328;9.514;2022-08-25T07:54:35;16.02;;;9.15;;
36423;SDS011;22458;45.328;9.514;2022-08-25T07:57:02;6.68;;;3.80;;
36423;SDS011;22458;45.328;9.514;2022-08-25T07:59:28;10.15;;;5.30;;
36423;SDS011;22458;45.328;9.514;2022-08-25T08:01:53;8.27;;;6.25;;
36423;SDS011;22458;45.328;9.514;2022-08-25T08:04:19;18.40;;;11.13;;
36423;SDS011;22458;45.328;9.514;2022-08-25T08:06:45;26.88;;;16.40;;
36423;SDS011;22458;45.328;9.514;2022-08-25T08:09:11;11.02;;;7.03;;
36423;SDS011;22458;45.328;9.514;2022-08-25T08:11:37;7.18;;;3.33;;
36423;SDS011;22458;45.328;9.514;2022-08-25T08:14:05;9.77;;;5.43;;
36423;SDS011;22458;45.328;9.514;2022-08-25T08:16:32;12.25;;;7.60;;
36423;SDS011;22458;45.328;9.514;2022-08-25T08:18:58;4.50;;;3.45;;
36423;SDS011;22458;45.328;9.514;2022-08-25T08:21:26;6.90;;;4.38;;
36423;SDS011;22458;45.328;9.514;2022-08-25T08:23:55;7.15;;;2.97;;
36423;SDS011;22458;45.328;9.514;2022-08-25T08:26:21;3.55;;;2.90;;
36423;SDS011;22458;45.328;9.514;2022-08-25T08:28:48;5.78;;;4.00;;
36423;SDS011;22458;45.328;9.514;2022-08-25T08:31:19;4.72;;;2.88;;
36423;SDS011;22458;45.328;9.514;2022-08-25T08:33:48;5.22;;;3.80;;
36423;SDS011;22458;45.328;9.514;2022-08-25T08:36:15;4.00;;;2.60;;
36423;SDS011;22458;45.328;9.514;2022-08-25T08:38:42;2.92;;;2.47;;
36423;SDS011;22458;45.328;9.514;2022-08-25T08:47:25;4.43;;;2.47;;
36423;SDS011;22458;45.328;9.514;2022-08-25T08:56:04;4.20;;;2.10;;
36423;SDS011;22458;45.328;9.514;2022-08-25T08:58:40;2.03;;;1.63;;
36423;SDS011;22458;45.328;9.514;2022-08-25T09:01:12;6.75;;;4.68;;
36423;SDS011;22458;45.328;9.514;2022-08-25T09:03:48;4.22;;;2.38;;
36423;SDS011;22458;45.328;9.514;2022-08-25T09:06:29;2.92;;;1.92;;
36423;SDS011;22458;45.328;9.514;2022-08-25T09:09:02;2.17;;;1.30;;
36423;SDS011;22458;45.328;9.514;2022-08-25T09:14:19;3.30;;;2.20;;
36423;SDS011;22458;45.328;9.514;2022-08-25T09:17:05;2.20;;;1.42;;
36423;SDS011;22458;45.328;9.514;2022-08-25T09:20:13;2.53;;;1.88;;
36423;SDS011;22458;45.328;9.514;2022-08-25T09:25:28;4.20;;;2.92;;
36423;SDS011;22458;45.328;9.514;2022-08-25T09:33:19;2.63;;;1.92;;
36423;SDS011;22458;45.328;9.514;2022-08-25T09:35:46;2.97;;;1.90;;
36423;SDS011;22458;45.328;9.514;2022-08-25T09:40:44;3.25;;;2.20;;
36423;SDS011;22458;45.328;9.514;2022-08-25T09:43:55;6.78;;;3.92;;
36423;SDS011;22458;45.328;9.514;2022-08-25T09:48:46;4.85;;;2.33;;
36423;SDS011;22458;45.328;9.514;2022-08-25T09:51:17;2.30;;;1.42;;
36423;SDS011;22458;45.328;9.514;2022-08-25T09:56:56;3.83;;;2.70;;
36423;SDS011;22458;45.328;9.514;2022-08-25T10:02:20;3.88;;;2.15;;
36423;SDS011;22458;45.328;9.514;2022-08-25T10:04:53;5.00;;;3.28;;
36423;SDS011;22458;45.328;9.514;2022-08-25T10:10:16;5.70;;;2.80;;
36423;SDS011;22458;45.328;9.514;2022-08-25T10:12:46;4.30;;;3.15;;
36423;SDS011;22458;45.328;9.514;2022-08-25T10:17:47;3.33;;;2.28;;
36423;SDS011;22458;45.328;9.514;2022-08-25T10:20:22;3.45;;;2.38;;
36423;SDS011;22458;45.328;9.514;2022-08-25T10:22:50;3.30;;;2.15;;
36423;SDS011;22458;45.328;9.514;2022-08-25T10:25:24;7.22;;;3.22;;
36423;SDS011;22458;45.328;9.514;2022-08-25T10:28:11;6.18;;;4.18;;
36423;SDS011;22458;45.328;9.514;2022-08-25T10:33:36;6.75;;;3.60;;
36423;SDS011;22458;45.328;9.514;2022-08-25T10:42:33;7.38;;;2.92;;
36423;SDS011;22458;45.328;9.514;2022-08-25T11:05:11;3.72;;;2.03;;
36423;SDS011;22458;45.328;9.514;2022-08-25T11:07:51;4.95;;;2.88;;
36423;SDS011;22458;45.328;9.514;2022-08-25T11:13:29;5.05;;;3.03;;
36423;SDS011;22458;45.328;9.514;2022-08-25T11:16:08;6.70;;;3.35;;
36423;SDS011;22458;45.328;9.514;2022-08-25T11:18:38;4.78;;;2.35;;
36423;SDS011;22458;45.328;9.514;2022-08-25T11:21:11;2.50;;;1.95;;
36423;SDS011;22458;45.328;9.514;2022-08-25T11:23:45;4.65;;;3.22;;
36423;SDS011;22458;45.328;9.514;2022-08-25T11:26:27;5.50;;;2.30;;
36423;SDS011;22458;45.328;9.514;2022-08-25T11:29:05;8.82;;;5.35;;
36423;SDS011;22458;45.328;9.514;2022-08-25T11:31:38;2.92;;;2.13;;
36423;SDS011;22458;45.328;9.514;2022-08-25T11:34:08;7.22;;;4.75;;
36423;SDS011;22458;45.328;9.514;2022-08-25T11:36:38;3.53;;;2.70;;
36423;SDS011;22458;45.328;9.514;2022-08-25T11:45:21;4.75;;;2.28;;
36423;SDS011;22458;45.328;9.514;2022-08-25T11:53:33;2.75;;;1.27;;
36423;SDS011;22458;45.328;9.514;2022-08-25T11:56:09;2.50;;;1.38;;
36423;SDS011;22458;45.328;9.514;2022-08-25T11:58:47;1.38;;;0.98;;
36423;SDS011;22458;45.328;9.514;2022-08-25T12:04:38;1.75;;;1.20;;
36423;SDS011;22458;45.328;9.514;2022-08-25T12:09:33;2.67;;;1.50;;
36423;SDS011;22458;45.328;9.514;2022-08-25T12:24:19;1.60;;;1.05;;
36423;SDS011;22458;45.328;9.514;2022-08-25T12:35:31;2.42;;;1.08;;
36423;SDS011;22458;45.328;9.514;2022-08-25T12:38:15;2.45;;;1.00;;
36423;SDS011;22458;45.328;9.514;2022-08-25T12:41:07;2.55;;;1.40;;
36423;SDS011;22458;45.328;9.514;2022-08-25T12:43:39;2.47;;;1.20;;
36423;SDS011;22458;45.328;9.514;2022-08-25T12:51:54;1.63;;;1.20;;
36423;SDS011;22458;45.328;9.514;2022-08-25T13:00:48;2.38;;;1.35;;
36423;SDS011;22458;45.328;9.514;2022-08-25T13:06:13;5.25;;;2.25;;
36423;SDS011;22458;45.328;9.514;2022-08-25T13:14:52;2.05;;;1.23;;
36423;SDS011;22458;45.328;9.514;2022-08-25T13:19:51;2.30;;;0.90;;
36423;SDS011;22458;45.328;9.514;2022-08-25T13:22:34;5.22;;;1.33;;
36423;SDS011;22458;45.328;9.514;2022-08-25T13:25:00;2.08;;;1.27;;
36423;SDS011;22458;45.328;9.514;2022-08-25T13:27:26;3.72;;;1.77;;
36423;SDS011;22458;45.328;9.514;2022-08-25T13:29:55;2.20;;;1.40;;
36423;SDS011;22458;45.328;9.514;2022-08-25T13:32:33;3.83;;;1.40;;
36423;SDS011;22458;45.328;9.514;2022-08-25T13:38:14;4.20;;;1.30;;
36423;SDS011;22458;45.328;9.514;2022-08-25T13:40:41;1.33;;;1.10;;
36423;SDS011;22458;45.328;9.514;2022-08-25T13:43:08;2.72;;;1.45;;
36423;SDS011;22458;45.328;9.514;2022-08-25T13:48:06;2.65;;;1.30;;
36423;SDS011;22458;45.328;9.514;2022-08-25T13:50:38;1.45;;;1.15;;
36423;SDS011;22458;45.328;9.514;2022-08-25T13:53:20;1.83;;;1.67;;
36423;SDS011;22458;45.328;9.514;2022-08-25T14:03:53;2.80;;;1.33;;
36423;SDS011;22458;45.328;9.514;2022-08-25T14:06:22;2.55;;;1.30;;
36423;SDS011;22458;45.328;9.514;2022-08-25T14:14:05;2.13;;;1.58;;
36423;SDS011;22458;45.328;9.514;2022-08-25T14:16:39;1.25;;;0.80;;
36423;SDS011;22458;45.328;9.514;2022-08-25T14:19:18;1.05;;;0.70;;
36423;SDS011;22458;45.328;9.514;2022-08-25T14:21:47;4.25;;;1.20;;
36423;SDS011;22458;45.328;9.514;2022-08-25T14:24:15;1.57;;;0.97;;
36423;SDS011;22458;45.328;9.514;2022-08-25T14:26:43;1.88;;;1.13;;
36423;SDS011;22458;45.328;9.514;2022-08-25T14:29:10;3.33;;;0.98;;
36423;SDS011;22458;45.328;9.514;2022-08-25T14:31:36;1.35;;;1.00;;
36423;SDS011;22458;45.328;9.514;2022-08-25T14:34:23;1.70;;;1.10;;
36423;SDS011;22458;45.328;9.514;2022-08-25T14:36:53;1.58;;;1.17;;
36423;SDS011;22458;45.328;9.514;2022-08-25T14:39:20;1.40;;;1.10;;
36423;SDS011;22458;45.328;9.514;2022-08-25T14:41:46;2.63;;;1.25;;
36423;SDS011;22458;45.328;9.514;2022-08-25T14:44:13;1.63;;;1.10;;
36423;SDS011;22458;45.328;9.514;2022-08-25T14:46:40;2.63;;;0.98;;
36423;SDS011;22458;45.328;9.514;2022-08-25T14:49:10;1.20;;;0.95;;
36423;SDS011;22458;45.328;9.514;2022-08-25T14:51:40;1.75;;;0.88;;
36423;SDS011;22458;45.328;9.514;2022-08-25T14:54:09;2.08;;;1.30;;
36423;SDS011;22458;45.328;9.514;2022-08-25T14:56:42;4.80;;;2.17;;
36423;SDS011;22458;45.328;9.514;2022-08-25T14:59:10;2.85;;;1.20;;
36423;SDS011;22458;45.328;9.514;2022-08-25T15:01:36;1.83;;;1.05;;
36423;SDS011;22458;45.328;9.514;2022-08-25T15:04:04;2.63;;;1.42;;
36423;SDS011;22458;45.328;9.514;2022-08-25T15:06:33;2.13;;;1.15;;
36423;SDS011;22458;45.328;9.514;2022-08-25T15:09:00;3.47;;;1.40;;
36423;SDS011;22458;45.328;9.514;2022-08-25T15:11:35;2.15;;;1.35;;
36423;SDS011;22458;45.328;9.514;2022-08-25T15:14:06;4.50;;;1.75;;
36423;SDS011;22458;45.328;9.514;2022-08-25T15:16:38;2.33;;;1.23;;
36423;SDS011;22458;45.328;9.514;2022-08-25T15:19:10;2.22;;;1.60;;
36423;SDS011;22458;45.328;9.514;2022-08-25T15:21:40;1.30;;;1.17;;
36423;SDS011;22458;45.328;9.514;2022-08-25T15:24:08;1.90;;;1.27;;
36423;SDS011;22458;45.328;9.514;2022-08-25T15:26:43;1.20;;;0.93;;
36423;SDS011;22458;45.328;9.514;2022-08-25T15:29:22;2.40;;;1.00;;
36423;SDS011;22458;45.328;9.514;2022-08-25T15:31:50;3.78;;;1.00;;
36423;SDS011;22458;45.328;9.514;2022-08-25T15:34:16;2.35;;;1.02;;
36423;SDS011;22458;45.328;9.514;2022-08-25T15:36:42;3.22;;;1.15;;
36423;SDS011;22458;45.328;9.514;2022-08-25T15:39:08;4.93;;;1.33;;
36423;SDS011;22458;45.328;9.514;2022-08-25T15:41:34;1.60;;;1.38;;
36423;SDS011;22458;45.328;9.514;2022-08-25T15:44:02;2.33;;;1.20;;
36423;SDS011;22458;45.328;9.514;2022-08-25T15:46:29;2.47;;;1.65;;
36423;SDS011;22458;45.328;9.514;2022-08-25T15:48:55;2.42;;;1.20;;
36423;SDS011;22458;45.328;9.514;2022-08-25T15:53:49;3.35;;;1.27;;
36423;SDS011;22458;45.328;9.514;2022-08-25T15:56:15;1.73;;;1.27;;
36423;SDS011;22458;45.328;9.514;2022-08-25T15:58:46;1.90;;;1.40;;
36423;SDS011;22458;45.328;9.514;2022-08-25T16:01:13;1.60;;;1.20;;
36423;SDS011;22458;45.328;9.514;2022-08-25T16:03:49;1.65;;;0.90;;
36423;SDS011;22458;45.328;9.514;2022-08-25T16:06:15;1.65;;;1.13;;
36423;SDS011;22458;45.328;9.514;2022-08-25T16:08:41;1.35;;;0.88;;
36423;SDS011;22458;45.328;9.514;2022-08-25T16:11:14;2.75;;;1.27;;
36423;SDS011;22458;45.328;9.514;2022-08-25T16:13:45;2.30;;;1.33;;
36423;SDS011;22458;45.328;9.514;2022-08-25T16:16:12;5.53;;;1.03;;
36423;SDS011;22458;45.328;9.514;2022-08-25T16:18:39;4.60;;;1.10;;
36423;SDS011;22458;45.328;9.514;2022-08-25T16:23:34;1.83;;;1.00;;
36423;SDS011;22458;45.328;9.514;2022-08-25T16:26:02;2.25;;;1.17;;
36423;SDS011;22458;45.328;9.514;2022-08-25T16:28:29;2.65;;;1.00;;
36423;SDS011;22458;45.328;9.514;2022-08-25T16:30:55;1.40;;;0.98;;
36423;SDS011;22458;45.328;9.514;2022-08-25T16:33:21;1.60;;;0.93;;
36423;SDS011;22458;45.328;9.514;2022-08-25T16:35:47;2.42;;;1.17;;
36423;SDS011;22458;45.328;9.514;2022-08-25T16:38:12;1.63;;;1.38;;
36423;SDS011;22458;45.328;9.514;2022-08-25T16:40:39;1.63;;;1.00;;
36423;SDS011;22458;45.328;9.514;2022-08-25T16:43:06;1.80;;;1.10;;
36423;SDS011;22458;45.328;9.514;2022-08-25T16:45:33;1.90;;;1.15;;
36423;SDS011;22458;45.328;9.514;2022-08-25T16:47:59;1.92;;;1.15;;
36423;SDS011;22458;45.328;9.514;2022-08-25T16:50:24;1.65;;;0.98;;
36423;SDS011;22458;45.328;9.514;2022-08-25T16:52:50;2.08;;;1.02;;
36423;SDS011;22458;45.328;9.514;2022-08-25T16:55:34;1.40;;;0.95;;
36423;SDS011;22458;45.328;9.514;2022-08-25T16:58:00;1.63;;;1.15;;
36423;SDS011;22458;45.328;9.514;2022-08-25T17:00:28;1.50;;;1.10;;
36423;SDS011;22458;45.328;9.514;2022-08-25T17:02:58;1.73;;;0.90;;
36423;SDS011;22458;45.328;9.514;2022-08-25T17:05:27;1.40;;;1.23;;
36423;SDS011;22458;45.328;9.514;2022-08-25T17:07:54;2.22;;;1.08;;
36423;SDS011;22458;45.328;9.514;2022-08-25T17:10:41;1.27;;;0.98;;
36423;SDS011;22458;45.328;9.514;2022-08-25T17:13:08;1.77;;;1.10;;
36423;SDS011;22458;45.328;9.514;2022-08-25T17:15:42;2.30;;;1.35;;
36423;SDS011;22458;45.328;9.514;2022-08-25T17:18:09;1.88;;;1.10;;
36423;SDS011;22458;45.328;9.514;2022-08-25T17:20:36;4.03;;;1.20;;
36423;SDS011;22458;45.328;9.514;2022-08-25T17:23:02;1.50;;;1.13;;
36423;SDS011;22458;45.328;9.514;2022-08-25T17:25:32;4.50;;;1.42;;
36423;SDS011;22458;45.328;9.514;2022-08-25T17:27:59;1.38;;;0.90;;
36423;SDS011;22458;45.328;9.514;2022-08-25T17:30:26;2.00;;;1.20;;
36423;SDS011;22458;45.328;9.514;2022-08-25T17:32:52;1.65;;;1.02;;
36423;SDS011;22458;45.328;9.514;2022-08-25T17:35:18;2.50;;;1.20;;
36423;SDS011;22458;45.328;9.514;2022-08-25T17:37:43;1.73;;;0.95;;
36423;SDS011;22458;45.328;9.514;2022-08-25T17:40:09;1.42;;;1.02;;
36423;SDS011;22458;45.328;9.514;2022-08-25T17:42:36;5.68;;;1.42;;
36423;SDS011;22458;45.328;9.514;2022-08-25T17:45:02;1.52;;;1.05;;